createdAt,value
2022-08-08T00:01:10.149Z,60
2022-08-08T00:06:55.796Z,66
2022-08-08T00:12:36.237Z,64
2022-08-08T00:18:18.791Z,72
2022-08-08T00:24:03.506Z,72
2022-08-08T00:29:47.695Z,60
2022-08-08T00:35:28.833Z,70
2022-08-08T00:41:16.191Z,70
2022-08-08T00:46:59.217Z,60
2022-08-08T00:52:52.036Z,58
2022-08-08T00:58:35.065Z,70
2022-08-08T01:04:16.002Z,74
2022-08-08T01:09:56.695Z,66
2022-08-08T01:15:55.069Z,60
2022-08-08T01:22:37.262Z,64
2022-08-08T01:28:29.885Z,60
2022-08-08T01:34:10.252Z,66
2022-08-08T01:39:57.507Z,68
2022-08-08T01:45:38.323Z,64
2022-08-08T02:01:15.634Z,62
2022-08-08T02:06:59.429Z,68
2022-08-08T02:12:40.266Z,60
2022-08-08T02:18:20.488Z,42
2022-08-08T02:24:01.106Z,58
2022-08-08T02:29:53.411Z,74
2022-08-08T02:36:16.803Z,64
2022-08-08T02:42:11.349Z,72
2022-08-08T02:47:56.297Z,64
2022-08-08T02:53:37.779Z,66
2022-08-08T03:00:34.136Z,58
2022-08-08T03:06:36.030Z,58
2022-08-08T03:13:07.596Z,68
2022-08-08T03:22:00.534Z,72
2022-08-08T03:27:42.661Z,64
2022-08-08T03:34:04.412Z,66
2022-08-08T03:40:04.613Z,70
2022-08-08T03:46:10.009Z,48
2022-08-08T03:56:55.573Z,2
2022-08-08T04:02:54.343Z,70
2022-08-08T04:14:37.319Z,64
2022-08-08T04:25:20.837Z,60
2022-08-08T04:32:01.014Z,58
2022-08-08T04:38:00.162Z,64
2022-08-08T04:48:42.942Z,56
2022-08-08T04:54:43.109Z,76
2022-08-08T05:00:33.808Z,70
2022-08-08T05:06:30.010Z,50
2022-08-08T05:12:29.975Z,70
2022-08-08T05:18:13.399Z,74
2022-08-08T05:24:10.833Z,60
2022-08-08T05:29:53.059Z,60
2022-08-08T05:35:54.763Z,64
2022-08-08T05:41:56.401Z,62
2022-08-08T05:48:10.153Z,64
2022-08-08T05:55:07.372Z,62
2022-08-08T06:00:59.393Z,70
2022-08-08T06:06:50.574Z,60
2022-08-08T06:12:33.337Z,72
2022-08-08T06:18:24.373Z,70
2022-08-08T06:24:36.794Z,76
2022-08-08T06:30:30.124Z,72
2022-08-08T06:36:10.987Z,70
2022-08-08T06:41:51.373Z,76
2022-08-08T06:48:06.333Z,68
2022-08-08T06:54:01.124Z,66
2022-08-08T07:00:33.398Z,86
2022-08-08T07:06:17.640Z,80
2022-08-08T07:11:57.489Z,80
2022-08-08T07:18:42.404Z,84
2022-08-08T07:30:27.017Z,68
2022-08-08T07:36:09.496Z,82
2022-08-08T07:42:12.981Z,82
2022-08-08T07:47:54.309Z,24
2022-08-08T07:54:04.130Z,18
2022-08-08T07:59:49.428Z,24
2022-08-08T08:05:35.341Z,20
2022-08-08T08:11:33.761Z,24
2022-08-08T08:17:58.479Z,32
2022-08-08T08:24:03.113Z,14
2022-08-08T08:29:43.220Z,26
2022-08-08T08:36:29.716Z,22
2022-08-08T08:42:36.804Z,14
2022-08-08T08:48:20.388Z,8
2022-08-08T08:54:02.924Z,2
2022-08-08T09:00:19.820Z,2
2022-08-08T09:12:09.843Z,6
2022-08-08T09:17:59.979Z,0
2022-08-08T09:23:41.861Z,6
2022-08-08T09:29:26.688Z,0
2022-08-08T09:35:08.970Z,16
2022-08-08T09:41:00.528Z,2
2022-08-08T09:48:12.780Z,4
2022-08-08T09:54:42.422Z,0
2022-08-08T10:00:59.315Z,0
2022-08-08T10:06:54.169Z,0
2022-08-08T10:13:14.499Z,0
2022-08-08T10:18:57.086Z,4
2022-08-08T10:24:45.579Z,4
2022-08-08T10:31:10.442Z,2
2022-08-08T10:36:51.134Z,0
2022-08-08T10:42:34.858Z,0
2022-08-08T10:48:36.120Z,0
2022-08-08T11:05:24.799Z,22
2022-08-08T11:12:14.716Z,0
2022-08-08T11:18:02.855Z,10
2022-08-08T11:23:42.907Z,12
2022-08-08T11:30:33.220Z,0
2022-08-08T11:36:32.044Z,0
2022-08-08T11:42:27.333Z,2
2022-08-08T11:48:27.983Z,0
2022-08-08T11:54:46.847Z,0
2022-08-08T12:16:51.743Z,0
2022-08-08T12:28:45.552Z,0
2022-08-08T12:34:37.058Z,10
2022-08-08T12:40:26.004Z,0
2022-08-08T12:46:27.023Z,0
2022-08-08T12:52:41.845Z,0
2022-08-08T12:58:36.223Z,4
2022-08-08T13:06:14.048Z,6
2022-08-08T13:12:57.337Z,0
2022-08-08T13:19:21.650Z,0
2022-08-08T13:25:24.828Z,4
2022-08-08T13:31:09.670Z,0
2022-08-08T13:36:55.807Z,4
2022-08-08T13:42:44.406Z,2
2022-08-08T13:48:27.498Z,6
2022-08-08T13:54:19.214Z,4
2022-08-08T14:00:06.196Z,4
2022-08-08T14:06:02.315Z,2
2022-08-08T14:11:46.978Z,0
2022-08-08T14:18:56.476Z,2
2022-08-08T14:24:49.997Z,4
2022-08-08T14:30:36.071Z,2
2022-08-08T14:36:37.467Z,2
2022-08-08T14:42:28.708Z,2
2022-08-08T14:48:10.004Z,0
2022-08-08T14:53:58.666Z,4
2022-08-08T14:59:59.473Z,0
2022-08-08T15:06:00.540Z,4
2022-08-08T15:11:54.261Z,2
2022-08-08T15:22:42.310Z,3
2022-08-08T15:28:41.331Z,4
2022-08-08T15:34:32.625Z,2
2022-08-08T15:46:06.140Z,24
2022-08-08T15:51:46.579Z,78
2022-08-08T15:57:40.239Z,76
2022-08-08T16:03:25.513Z,70
2022-08-08T16:13:53.129Z,76
2022-08-08T16:20:02.915Z,72
2022-08-08T16:26:33.238Z,78
2022-08-08T16:32:36.714Z,68
2022-08-08T16:38:32.267Z,80
2022-08-08T16:44:13.747Z,78
2022-08-08T16:50:16.023Z,74
2022-08-08T16:56:16.085Z,66
2022-08-08T17:01:59.713Z,72
2022-08-08T17:07:42.594Z,74
2022-08-08T17:14:02.294Z,74
2022-08-08T17:19:50.404Z,80
2022-08-08T17:25:54.684Z,82
2022-08-08T17:31:49.980Z,70
2022-08-08T17:37:36.745Z,76
2022-08-08T17:43:23.954Z,70
2022-08-08T17:49:10.223Z,76
2022-08-08T17:54:56.967Z,82
2022-08-08T18:00:57.572Z,130
2022-08-08T18:06:45.300Z,76
2022-08-08T18:13:18.173Z,80
2022-08-08T18:19:02.995Z,76
2022-08-08T18:24:50.325Z,76
2022-08-08T18:30:32.546Z,78
2022-08-08T18:36:25.784Z,78
2022-08-08T18:42:22.555Z,70
2022-08-08T18:48:18.638Z,72
2022-08-08T18:54:31.309Z,72
2022-08-08T19:00:25.524Z,80
2022-08-08T19:06:09.258Z,72
2022-08-08T19:11:54.833Z,76
2022-08-08T19:19:09.918Z,66
2022-08-08T19:26:31.670Z,66
2022-08-08T19:32:25.691Z,64
2022-08-08T19:38:22.708Z,80
2022-08-08T19:44:51.545Z,74
2022-08-08T19:50:46.245Z,80
2022-08-08T19:56:49.420Z,70
2022-08-08T20:02:32.513Z,76
2022-08-08T20:08:33.392Z,78
2022-08-08T20:14:54.011Z,68
2022-08-08T20:20:45.702Z,74
2022-08-08T20:32:21.485Z,59
2022-08-08T20:38:09.092Z,74
2022-08-08T20:43:52.050Z,68
2022-08-08T20:50:01.351Z,72
2022-08-08T20:55:52.157Z,66
2022-08-08T21:02:14.491Z,70
2022-08-08T21:08:57.063Z,68
2022-08-08T21:14:39.886Z,74
2022-08-08T21:20:37.841Z,66
2022-08-08T21:26:28.031Z,70
2022-08-08T21:32:27.889Z,68
2022-08-08T21:38:18.690Z,64
2022-08-08T21:43:58.826Z,70
2022-08-08T21:49:42.690Z,72
2022-08-08T21:56:50.177Z,72
2022-08-08T22:02:34.881Z,72
2022-08-08T22:08:24.738Z,66
2022-08-08T22:14:11.413Z,72
2022-08-08T22:20:28.748Z,72
2022-08-08T22:26:32.798Z,72
2022-08-08T22:32:13.197Z,66
2022-08-08T22:37:55.922Z,72
2022-08-08T22:44:06.559Z,60
2022-08-08T22:50:01.762Z,72
2022-08-08T22:56:03.811Z,64
2022-08-08T23:02:13.578Z,64
2022-08-08T23:07:58.940Z,70
2022-08-08T23:14:02.292Z,58
2022-08-08T23:19:54.603Z,62
2022-08-08T23:25:49.449Z,66
2022-08-08T23:31:42.013Z,70
2022-08-08T23:38:04.244Z,72
2022-08-08T23:43:57.059Z,64
2022-08-08T23:49:37.467Z,72
2022-08-08T23:55:25.118Z,68
